Accueil
METAR-TAF:

METAR-TAF

Aéroports :

New Smyrna Beach Municipal Airport

New Smyrna Beach, Floride, États-Unis

latitude: 29-03-20N, longitude: 080-56-54W, altitude: 3 m

Observation

Le bulletin a été fait il y a 5 heures et 45 minutes, à 01:47 UTC
Vent 6 kt de sud/sud-est
Température 21°C
Humidité 94%
Pression 1017 hPa
Visibilité: 16.1 km
Quelques nuages à une hauteur de 600 ft
Ciel couvert à une hauteur de 2000 ft

METAR: KEVB 290147Z 16006KT 10SM FEW006 OVC020 21/20 A3004 RMK LAST

Heure: 03:32 (07:32 UTC)


TAF: absent

Observations et prévisions météorologiques de plus de 4000 aéroports (messages METAR et TAF).

Les stations disponibles sont représentées par des disques jaunes et rouges sur la carte.

Passer la souris dessus pour voir le nom de la station.

Cliquer dessus pour voir les observations et prévisions météorologiques.

Pour changer de carte: cliquez sur les boutons verts avec une croix noire pour zoomer, sur le bouton vert avec un tiret pour effectuer un zoom arrière, ou sur les flèches vertes pour les cartes adjacentes.


METAR-TAF: